Time;durP1;ratioP1;P1;durP2;ratioP2;P2;SDS_P1;SDS_P2;PMS_P1;PMS_P2;Temp;Humidity;BMP_temperature;BMP_pressure;BME280_temperature;BME280_humidity;BME280_pressure;Samples;Min_cycle;Max_cycle;Signal;HPM_P1;HPM_P2
2021/05/21 00:00:27;;;;;;;0.43;0.43;;;10.50;90.70;;;;;;5053004;28;20183;-70
2021/05/21 00:02:53;;;;;;;0.50;0.50;;;10.50;90.80;;;;;;5053330;28;20190;-70
2021/05/21 00:05:19;;;;;;;0.30;0.30;;;10.40;91.20;;;;;;5048880;28;20266;-71
2021/05/21 00:07:44;;;;;;;0.30;0.30;;;10.40;91.70;;;;;;5048650;28;20664;-70
2021/05/21 00:10:10;;;;;;;0.30;0.30;;;10.30;91.70;;;;;;5055624;28;20184;-70
2021/05/21 00:12:37;;;;;;;0.40;0.40;;;10.30;91.90;;;;;;5049956;28;20184;-70
2021/05/21 00:15:04;;;;;;;0.47;0.47;;;10.20;92.00;;;;;;5046735;28;20211;-70
2021/05/21 00:17:30;;;;;;;1.63;0.50;;;10.20;92.20;;;;;;5049888;28;20172;-70
2021/05/21 00:19:56;;;;;;;0.40;0.40;;;10.10;92.20;;;;;;5050935;28;20241;-71
2021/05/21 00:22:22;;;;;;;0.30;0.30;;;10.20;92.40;;;;;;5058353;28;20648;-72
2021/05/21 00:24:47;;;;;;;0.40;0.40;;;10.10;92.40;;;;;;5048535;28;20270;-71
2021/05/21 00:27:13;;;;;;;0.40;0.40;;;10.10;92.50;;;;;;5049310;28;20183;-71
2021/05/21 00:29:39;;;;;;;0.40;0.40;;;10.10;92.70;;;;;;5051398;28;20770;-70
2021/05/21 00:32:05;;;;;;;0.30;0.30;;;10.00;92.90;;;;;;5050448;28;20183;-70
2021/05/21 00:34:30;;;;;;;0.40;0.40;;;10.00;93.00;;;;;;5049266;28;20707;-71
2021/05/21 00:36:56;;;;;;;0.50;0.50;;;10.00;92.80;;;;;;5051364;28;20658;-70
2021/05/21 00:39:22;;;;;;;0.40;0.40;;;10.00;92.90;;;;;;5049278;28;20690;-70
2021/05/21 00:41:47;;;;;;;0.53;0.53;;;10.10;92.80;;;;;;5054656;28;20222;-72
2021/05/21 00:44:13;;;;;;;0.50;0.50;;;10.10;92.50;;;;;;5052191;28;20253;-70
2021/05/21 00:46:39;;;;;;;0.50;0.50;;;10.10;92.90;;;;;;5048914;28;20214;-71
2021/05/21 00:49:06;;;;;;;0.40;0.40;;;10.00;93.10;;;;;;5047822;28;20187;-70
2021/05/21 00:51:33;;;;;;;2.53;0.67;;;10.00;93.00;;;;;;5052770;28;20180;-70
2021/05/21 00:53:59;;;;;;;0.50;0.50;;;10.10;93.00;;;;;;5045153;28;20652;-71
2021/05/21 00:56:25;;;;;;;0.43;0.43;;;10.10;93.10;;;;;;5055052;28;20211;-71
2021/05/21 00:58:51;;;;;;;0.50;0.50;;;10.10;92.80;;;;;;5043998;28;20254;-70
2021/05/21 01:01:17;;;;;;;0.60;0.60;;;10.20;92.70;;;;;;5046165;28;20179;-71
2021/05/21 01:03:42;;;;;;;0.60;0.60;;;10.20;92.90;;;;;;5057836;28;20668;-71
2021/05/21 01:06:10;;;;;;;0.40;0.40;;;10.20;92.90;;;;;;5049675;28;20227;-71
2021/05/21 01:08:36;;;;;;;0.60;0.60;;;10.20;92.70;;;;;;5058967;28;20257;-70
2021/05/21 01:11:04;;;;;;;0.57;0.57;;;10.30;92.50;;;;;;5052761;28;20167;-71
2021/05/21 01:13:30;;;;;;;0.47;0.47;;;10.30;92.70;;;;;;5055300;28;20220;-70
2021/05/21 01:15:56;;;;;;;0.40;0.40;;;10.30;92.60;;;;;;5049015;28;20254;-70
2021/05/21 01:18:21;;;;;;;0.60;0.60;;;10.40;92.10;;;;;;5047816;28;20238;-71
2021/05/21 01:20:47;;;;;;;0.30;0.30;;;10.40;92.10;;;;;;5055001;28;20723;-71
2021/05/21 01:23:13;;;;;;;0.30;0.30;;;10.40;92.20;;;;;;5049947;28;20198;-72
2021/05/21 01:25:38;;;;;;;0.50;0.50;;;10.40;92.30;;;;;;5054319;28;20214;-71
2021/05/21 01:28:05;;;;;;;0.68;0.47;;;10.40;92.30;;;;;;5048384;28;20216;-72
2021/05/21 01:30:31;;;;;;;0.50;0.50;;;10.40;92.30;;;;;;5052485;28;20182;-71
2021/05/21 01:33:09;;;;;;;0.60;0.60;;;10.40;92.40;;;;;;5048607;28;20278;-71
2021/05/21 01:35:35;;;;;;;0.30;0.30;;;10.40;92.30;;;;;;5050162;28;20211;-72
2021/05/21 01:38:01;;;;;;;0.50;0.50;;;10.40;92.50;;;;;;5040635;28;20246;-72
2021/05/21 01:40:28;;;;;;;0.40;0.40;;;10.30;92.60;;;;;;5049942;28;20191;-71
2021/05/21 01:42:55;;;;;;;0.50;0.50;;;10.40;92.60;;;;;;5048519;28;20560;-72
2021/05/21 01:45:21;;;;;;;0.30;0.30;;;10.30;92.40;;;;;;5047651;28;20186;-71
2021/05/21 01:47:48;;;;;;;0.47;0.47;;;10.30;92.70;;;;;;5047171;28;20616;-71
2021/05/21 01:50:14;;;;;;;0.60;0.60;;;10.30;92.80;;;;;;5047700;28;20205;-71
2021/05/21 01:52:40;;;;;;;0.30;0.30;;;10.30;93.00;;;;;;5042494;28;20834;-71
2021/05/21 01:55:06;;;;;;;0.40;0.40;;;10.20;93.00;;;;;;5053724;28;20203;-72
2021/05/21 01:57:35;;;;;;;1.07;0.37;;;10.20;93.00;;;;;;5056635;28;20245;-71
2021/05/21 02:00:03;;;;;;;0.40;0.40;;;10.20;93.10;;;;;;5043477;28;20196;-71
2021/05/21 02:02:29;;;;;;;0.50;0.50;;;10.20;93.30;;;;;;5055149;28;20214;-71
2021/05/21 02:04:55;;;;;;;0.40;0.40;;;10.20;93.30;;;;;;5055710;28;20222;-71
2021/05/21 02:07:20;;;;;;;0.30;0.30;;;10.20;93.30;;;;;;5047403;28;20175;-71
2021/05/21 02:10:00;;;;;;;0.40;0.40;;;10.20;93.60;;;;;;5046392;28;20187;-71
2021/05/21 02:12:28;;;;;;;0.40;0.40;;;10.20;93.70;;;;;;5049335;28;20565;-71
2021/05/21 02:14:57;;;;;;;0.27;0.27;;;10.10;94.20;;;;;;5046134;28;20687;-71
2021/05/21 02:17:22;;;;;;;0.30;0.30;;;10.10;94.30;;;;;;5051690;28;20646;-71
2021/05/21 02:19:48;;;;;;;0.23;0.23;;;10.10;94.50;;;;;;5050003;28;20183;-71
2021/05/21 02:22:32;;;;;;;0.30;0.30;;;10.10;94.70;;;;;;5046446;28;20186;-71
2021/05/21 02:25:01;;;;;;;0.80;0.40;;;10.10;94.70;;;;;;5051563;28;20229;-71
2021/05/21 02:27:27;;;;;;;0.40;0.40;;;10.10;95.00;;;;;;5049489;28;20175;-71
2021/05/21 02:29:53;;;;;;;0.33;0.33;;;10.10;95.10;;;;;;5048620;28;20191;-71
2021/05/21 02:32:19;;;;;;;0.30;0.30;;;10.10;95.10;;;;;;5050274;28;20189;-71
2021/05/21 02:34:45;;;;;;;0.37;0.37;;;10.00;95.30;;;;;;5052255;28;20192;-71
2021/05/21 02:37:11;;;;;;;0.30;0.30;;;10.00;95.30;;;;;;5052068;28;20184;-70
2021/05/21 02:39:37;;;;;;;0.40;0.40;;;10.00;95.50;;;;;;5052888;28;20194;-71
2021/05/21 02:42:04;;;;;;;0.40;0.40;;;10.00;95.60;;;;;;5051296;28;20190;-71
2021/05/21 02:44:30;;;;;;;0.30;0.30;;;10.00;95.60;;;;;;5055685;28;20184;-70
2021/05/21 02:46:56;;;;;;;0.30;0.30;;;10.00;95.60;;;;;;5052699;28;20266;-71
2021/05/21 02:49:21;;;;;;;0.40;0.40;;;10.00;95.90;;;;;;5042075;28;20179;-71
2021/05/21 02:51:49;;;;;;;0.30;0.30;;;10.00;95.90;;;;;;5051510;28;20183;-71
2021/05/21 02:54:15;;;;;;;0.20;0.20;;;10.00;96.20;;;;;;5050920;28;20190;-71
2021/05/21 02:56:41;;;;;;;0.10;0.10;;;10.00;96.40;;;;;;5053295;28;20694;-72
2021/05/21 02:59:06;;;;;;;0.20;0.20;;;10.00;96.50;;;;;;5052483;28;20197;-72
2021/05/21 03:01:33;;;;;;;0.30;0.23;;;9.90;96.60;;;;;;5061484;28;20187;-72
2021/05/21 03:03:59;;;;;;;0.40;0.40;;;9.90;96.70;;;;;;5055065;28;20179;-71
2021/05/21 03:06:24;;;;;;;0.20;0.20;;;9.90;96.90;;;;;;5056390;28;20192;-72
2021/05/21 03:08:50;;;;;;;0.30;0.30;;;9.90;97.10;;;;;;5052060;28;20186;-71
2021/05/21 03:11:17;;;;;;;0.20;0.20;;;9.90;97.10;;;;;;5057275;28;20660;-72
2021/05/21 03:13:43;;;;;;;0.20;0.20;;;9.90;97.20;;;;;;5051051;28;20221;-72
2021/05/21 03:16:09;;;;;;;0.30;0.30;;;9.90;97.50;;;;;;5052092;28;20591;-72
2021/05/21 03:18:35;;;;;;;0.20;0.20;;;9.80;97.60;;;;;;5050697;28;20196;-72
2021/05/21 03:21:00;;;;;;;0.23;0.23;;;9.90;97.70;;;;;;5058906;28;20270;-72
2021/05/21 03:23:26;;;;;;;0.30;0.30;;;9.80;97.70;;;;;;5052909;28;20259;-72
2021/05/21 03:25:52;;;;;;;0.23;0.23;;;9.80;97.80;;;;;;5051169;28;20196;-69
2021/05/21 03:28:18;;;;;;;0.40;0.40;;;9.80;98.00;;;;;;5058032;28;20254;-72
2021/05/21 03:30:44;;;;;;;0.30;0.30;;;9.80;98.10;;;;;;5056461;28;20232;-72
2021/05/21 03:33:09;;;;;;;0.40;0.37;;;9.80;98.20;;;;;;5054883;28;20179;-71
2021/05/21 03:35:36;;;;;;;0.40;0.40;;;9.80;98.30;;;;;;5049879;28;20207;-70
2021/05/21 03:38:04;;;;;;;0.40;0.40;;;9.80;98.50;;;;;;5049629;28;20180;-71
2021/05/21 03:40:31;;;;;;;0.60;0.40;;;9.70;98.50;;;;;;5054574;28;20175;-70
2021/05/21 03:42:58;;;;;;;0.70;0.50;;;9.70;98.50;;;;;;5050968;28;20187;-70
2021/05/21 03:45:24;;;;;;;0.50;0.50;;;9.70;98.50;;;;;;5050627;28;20211;-72
2021/05/21 03:47:49;;;;;;;0.30;0.30;;;9.80;98.50;;;;;;5051806;28;20214;-71
2021/05/21 03:50:18;;;;;;;0.63;0.63;;;9.80;98.50;;;;;;5053946;28;20242;-72
2021/05/21 03:52:45;;;;;;;0.30;0.30;;;9.80;98.50;;;;;;5049622;28;20591;-70
2021/05/21 03:55:11;;;;;;;0.50;0.50;;;9.80;98.50;;;;;;5051047;28;20298;-71
2021/05/21 03:57:41;;;;;;;0.77;0.70;;;9.80;98.50;;;;;;5049908;28;20673;-71
2021/05/21 04:00:09;;;;;;;0.40;0.40;;;9.90;98.50;;;;;;5051806;28;20179;-71
2021/05/21 04:02:35;;;;;;;0.60;0.60;;;9.90;98.50;;;;;;5041455;28;20183;-71
2021/05/21 04:05:02;;;;;;;2.63;0.70;;;9.90;98.50;;;;;;5052137;28;20194;-71
2021/05/21 04:07:28;;;;;;;0.77;0.77;;;9.90;98.50;;;;;;5049707;28;20211;-71
2021/05/21 04:09:53;;;;;;;0.70;0.70;;;9.90;98.50;;;;;;5049721;28;20214;-71
2021/05/21 04:12:19;;;;;;;0.47;0.47;;;10.00;98.50;;;;;;5060398;28;20207;-71
2021/05/21 04:14:45;;;;;;;0.60;0.60;;;10.00;98.50;;;;;;5055315;28;20196;-70
2021/05/21 04:17:11;;;;;;;0.53;0.53;;;10.00;98.50;;;;;;5049681;28;20245;-70
2021/05/21 04:19:36;;;;;;;0.70;0.70;;;10.10;98.50;;;;;;5049244;28;20174;-72
2021/05/21 04:22:02;;;;;;;0.77;0.77;;;10.10;98.50;;;;;;5046576;28;20222;-71
2021/05/21 04:24:28;;;;;;;1.13;0.70;;;10.10;98.50;;;;;;5053465;28;20180;-72
2021/05/21 04:26:53;;;;;;;0.57;0.57;;;10.20;98.50;;;;;;5057964;28;20187;-71
2021/05/21 04:29:19;;;;;;;0.90;0.90;;;10.20;98.50;;;;;;5056175;28;20179;-70
2021/05/21 04:31:45;;;;;;;0.60;0.60;;;10.20;98.50;;;;;;5052310;28;20218;-71
2021/05/21 04:34:10;;;;;;;0.73;0.73;;;10.30;98.20;;;;;;5048568;28;20214;-72
2021/05/21 04:36:36;;;;;;;0.70;0.70;;;10.30;98.50;;;;;;5048498;28;20238;-71
2021/05/21 04:39:04;;;;;;;0.50;0.50;;;10.30;98.30;;;;;;5047807;28;20661;-71
2021/05/21 04:41:30;;;;;;;0.65;0.65;;;10.40;98.20;;;;;;5049077;28;20172;-71
2021/05/21 04:43:55;;;;;;;0.50;0.50;;;10.40;97.90;;;;;;5048921;28;20233;-71
2021/05/21 04:46:21;;;;;;;0.60;0.60;;;10.40;97.70;;;;;;5048727;28;20179;-71
2021/05/21 04:48:47;;;;;;;0.50;0.50;;;10.40;97.90;;;;;;5047854;28;20184;-74
2021/05/21 04:51:12;;;;;;;0.80;0.80;;;10.40;97.80;;;;;;5048447;28;20541;-73
2021/05/21 04:53:40;;;;;;;0.50;0.50;;;10.40;97.70;;;;;;5049194;28;20176;-72
2021/05/21 04:56:12;;;;;;;0.40;0.40;;;10.50;97.60;;;;;;5049230;28;20199;-69
2021/05/21 04:58:38;;;;;;;0.70;0.70;;;10.50;97.40;;;;;;5050143;28;20187;-70
2021/05/21 05:01:04;;;;;;;0.60;0.60;;;10.60;97.20;;;;;;5047313;28;20187;-69
2021/05/21 05:03:30;;;;;;;0.60;0.60;;;10.60;97.10;;;;;;5048167;28;20180;-70
2021/05/21 05:05:56;;;;;;;0.70;0.70;;;10.60;97.20;;;;;;5050871;28;20255;-69
2021/05/21 05:08:23;;;;;;;0.90;0.90;;;10.70;97.00;;;;;;5047739;28;20179;-70
2021/05/21 05:10:50;;;;;;;0.70;0.70;;;10.70;96.90;;;;;;5047614;28;20225;-70
2021/05/21 05:13:17;;;;;;;0.50;0.50;;;10.70;96.90;;;;;;5053261;28;20722;-70
2021/05/21 05:15:43;;;;;;;0.65;0.65;;;10.70;96.90;;;;;;5046535;28;20997;-68
2021/05/21 05:18:09;;;;;;;0.50;0.50;;;10.70;96.90;;;;;;5049372;28;20190;-68
2021/05/21 05:20:35;;;;;;;0.60;0.60;;;10.80;97.00;;;;;;5047070;28;20195;-67
2021/05/21 05:23:01;;;;;;;0.30;0.30;;;10.80;96.90;;;;;;5054790;28;20190;-68
2021/05/21 05:25:27;;;;;;;0.47;0.47;;;10.80;96.70;;;;;;5051353;28;20194;-68
2021/05/21 05:27:54;;;;;;;0.40;0.40;;;10.80;96.50;;;;;;5047679;28;20258;-68
2021/05/21 05:30:22;;;;;;;0.50;0.50;;;10.90;96.60;;;;;;5047828;28;20175;-68
2021/05/21 05:32:48;;;;;;;0.40;0.40;;;10.90;96.30;;;;;;5047631;28;20194;-68
2021/05/21 05:35:14;;;;;;;0.95;0.35;;;10.90;96.20;;;;;;5051303;28;20707;-69
2021/05/21 05:37:40;;;;;;;0.40;0.40;;;10.90;96.30;;;;;;5046285;28;20237;-69
2021/05/21 05:40:07;;;;;;;0.35;0.30;;;10.90;96.10;;;;;;5047225;28;20668;-69
2021/05/21 05:42:33;;;;;;;0.50;0.50;;;11.00;96.20;;;;;;5048002;28;20178;-69
2021/05/21 05:44:59;;;;;;;0.40;0.40;;;10.90;95.90;;;;;;5047390;28;20188;-69
2021/05/21 05:47:24;;;;;;;0.40;0.40;;;10.90;96.00;;;;;;5050985;28;20183;-69
2021/05/21 05:49:50;;;;;;;0.38;0.38;;;10.90;96.00;;;;;;5051194;28;20574;-68
2021/05/21 05:52:16;;;;;;;0.38;0.38;;;11.00;96.20;;;;;;5044905;28;20196;-69
2021/05/21 05:54:43;;;;;;;0.40;0.40;;;11.00;96.10;;;;;;5046562;28;20237;-68
2021/05/21 05:57:09;;;;;;;0.30;0.30;;;11.10;96.10;;;;;;5046769;28;20263;-67
2021/05/21 05:59:35;;;;;;;0.32;0.32;;;11.20;95.80;;;;;;5045544;28;20653;-67
2021/05/21 06:02:00;;;;;;;0.43;0.43;;;11.20;95.50;;;;;;5053184;28;20267;-68
2021/05/21 06:04:26;;;;;;;0.30;0.30;;;11.30;95.40;;;;;;5049687;28;20268;-69
2021/05/21 06:06:52;;;;;;;0.32;0.32;;;11.40;95.00;;;;;;5044587;28;21065;-68
2021/05/21 06:09:18;;;;;;;0.38;0.38;;;11.50;94.90;;;;;;5045755;28;20802;-68
2021/05/21 06:11:44;;;;;;;0.50;0.50;;;11.70;94.70;;;;;;5047059;28;20187;-70
2021/05/21 06:14:11;;;;;;;0.30;0.30;;;11.80;93.90;;;;;;5049308;28;20203;-68
2021/05/21 06:16:42;;;;;;;0.40;0.40;;;12.00;93.50;;;;;;5047263;28;20929;-68
2021/05/21 06:19:08;;;;;;;0.57;0.30;;;12.20;92.80;;;;;;5047606;28;20212;-68
2021/05/21 06:21:34;;;;;;;0.30;0.30;;;12.30;91.70;;;;;;5047112;28;20184;-69
2021/05/21 06:24:00;;;;;;;0.38;0.38;;;12.40;91.40;;;;;;5047070;28;20799;-68
2021/05/21 06:28:55;;;;;;;0.40;0.40;;;12.40;90.60;;;;;;5049776;28;20183;-69
2021/05/21 06:31:21;;;;;;;0.30;0.30;;;12.30;90.80;;;;;;5047086;28;20180;-70
2021/05/21 06:33:47;;;;;;;0.40;0.40;;;12.30;90.60;;;;;;5047787;28;20183;-70
2021/05/21 06:36:13;;;;;;;0.40;0.40;;;12.30;90.90;;;;;;5050194;28;20276;-69
2021/05/21 06:38:40;;;;;;;0.35;0.35;;;12.40;90.70;;;;;;5045927;28;20180;-69
2021/05/21 06:41:06;;;;;;;2.60;1.60;;;12.60;88.90;;;;;;5041033;28;20436;-68
2021/05/21 06:43:32;;;;;;;0.30;0.30;;;12.60;88.80;;;;;;5046550;28;20431;-68
2021/05/21 06:45:59;;;;;;;0.30;0.30;;;12.60;89.40;;;;;;5056241;28;20206;-68
2021/05/21 06:48:29;;;;;;;0.30;0.30;;;12.60;89.30;;;;;;5056268;28;20187;-67
2021/05/21 06:50:56;;;;;;;0.30;0.30;;;12.60;89.10;;;;;;5054906;28;20187;-68
2021/05/21 06:53:22;;;;;;;2.25;2.08;;;12.70;89.30;;;;;;5047110;28;20183;-70
2021/05/21 06:55:50;;;;;;;0.30;0.30;;;12.70;89.30;;;;;;5038089;28;20242;-69
2021/05/21 06:58:18;;;;;;;0.28;0.28;;;12.70;89.00;;;;;;5044680;28;20226;-69
2021/05/21 07:00:45;;;;;;;0.30;0.30;;;12.70;88.90;;;;;;5043361;28;20180;-67
2021/05/21 07:03:10;;;;;;;1.15;0.52;;;12.80;89.20;;;;;;5043702;28;20241;-69
2021/05/21 07:05:37;;;;;;;0.40;0.40;;;12.80;89.20;;;;;;5043656;28;20188;-68
2021/05/21 07:08:03;;;;;;;0.40;0.40;;;12.90;88.70;;;;;;5059954;28;20210;-67
2021/05/21 07:10:29;;;;;;;0.50;0.50;;;12.90;88.70;;;;;;5048419;28;20180;-69
2021/05/21 07:12:54;;;;;;;0.60;0.50;;;12.90;88.10;;;;;;5047221;28;20183;-68
2021/05/21 07:15:20;;;;;;;0.50;0.50;;;12.80;88.00;;;;;;5041644;28;20314;-69
2021/05/21 07:17:46;;;;;;;1.42;0.30;;;12.70;88.30;;;;;;5045221;28;20267;-69
2021/05/21 07:20:14;;;;;;;0.40;0.40;;;12.60;88.30;;;;;;5052881;28;20207;-69
2021/05/21 07:22:40;;;;;;;0.30;0.30;;;12.60;88.20;;;;;;5046949;28;20182;-69
2021/05/21 07:25:08;;;;;;;0.55;0.55;;;12.70;88.30;;;;;;5048144;28;20183;-68
2021/05/21 07:27:34;;;;;;;0.47;0.47;;;12.70;88.30;;;;;;5047437;28;20180;-68
2021/05/21 07:30:00;;;;;;;0.45;0.45;;;12.70;89.10;;;;;;5047760;28;20657;-68
2021/05/21 07:32:26;;;;;;;0.65;0.65;;;12.70;89.10;;;;;;5049468;28;20911;-67
2021/05/21 07:34:52;;;;;;;0.52;0.52;;;12.90;89.20;;;;;;5048288;28;20180;-69
2021/05/21 07:37:18;;;;;;;0.60;0.60;;;12.90;88.80;;;;;;5052456;28;20187;-68
2021/05/21 07:39:44;;;;;;;1.95;0.60;;;13.00;88.80;;;;;;5048703;28;20182;-67
2021/05/21 07:42:10;;;;;;;0.57;0.57;;;13.10;88.30;;;;;;5048535;28;20571;-67
2021/05/21 07:44:35;;;;;;;0.63;0.63;;;13.30;87.90;;;;;;5049596;28;20175;-69
2021/05/21 07:47:02;;;;;;;0.90;0.90;;;13.30;87.30;;;;;;5050850;28;20370;-69
2021/05/21 07:49:27;;;;;;;0.68;0.68;;;13.40;87.80;;;;;;5063374;28;20187;-68
2021/05/21 07:51:54;;;;;;;0.88;0.88;;;13.50;87.60;;;;;;5050027;28;20579;-68
2021/05/21 07:54:20;;;;;;;1.00;0.80;;;13.60;87.10;;;;;;5054493;28;20210;-67
2021/05/21 07:56:46;;;;;;;1.13;1.13;;;13.60;86.50;;;;;;5058675;28;20289;-68
2021/05/21 07:59:13;;;;;;;0.95;0.95;;;13.60;86.30;;;;;;5048526;28;20192;-68
2021/05/21 08:01:40;;;;;;;1.17;1.17;;;13.70;86.40;;;;;;5050336;28;20179;-69
2021/05/21 08:04:06;;;;;;;1.08;1.08;;;13.70;86.00;;;;;;5050985;28;20187;-68
2021/05/21 08:06:32;;;;;;;1.13;1.13;;;13.80;85.50;;;;;;5054966;28;20258;-69
2021/05/21 08:08:58;;;;;;;1.58;1.45;;;13.80;85.00;;;;;;5051640;28;20212;-67
2021/05/21 08:11:24;;;;;;;1.65;1.17;;;14.00;85.10;;;;;;5054410;28;20179;-68
2021/05/21 08:13:49;;;;;;;0.80;0.80;;;14.20;84.50;;;;;;5056161;28;20276;-70
2021/05/21 08:16:15;;;;;;;1.10;0.70;;;14.40;84.60;;;;;;5053993;28;20223;-71
2021/05/21 08:18:41;;;;;;;0.50;0.50;;;14.40;82.80;;;;;;5049663;28;20178;-69
2021/05/21 08:21:07;;;;;;;1.02;1.02;;;14.30;81.20;;;;;;5055548;28;20188;-69
2021/05/21 08:23:34;;;;;;;0.80;0.80;;;14.30;81.90;;;;;;5043036;28;20844;-73
2021/05/21 08:26:00;;;;;;;0.75;0.75;;;14.20;83.60;;;;;;5057128;28;20194;-72
2021/05/21 08:28:26;;;;;;;1.17;1.17;;;14.20;84.00;;;;;;5057995;28;20214;-72
2021/05/21 08:30:52;;;;;;;0.95;0.95;;;14.20;83.60;;;;;;5055110;28;20180;-72
2021/05/21 08:33:19;;;;;;;0.80;0.80;;;14.10;83.80;;;;;;5056072;28;20267;-71
2021/05/21 08:35:46;;;;;;;1.00;1.00;;;14.10;83.40;;;;;;5057650;28;20206;-73
2021/05/21 08:38:13;;;;;;;1.50;1.05;;;14.20;83.90;;;;;;5057145;28;20183;-72
2021/05/21 08:40:40;;;;;;;1.20;1.10;;;14.20;83.70;;;;;;5056546;28;20171;-71
2021/05/21 08:43:08;;;;;;;0.90;0.90;;;14.40;84.00;;;;;;5057164;28;20199;-73
2021/05/21 08:45:34;;;;;;;1.00;1.00;;;14.40;83.70;;;;;;5056320;28;20226;-72
2021/05/21 08:48:01;;;;;;;0.90;0.90;;;14.50;83.20;;;;;;5054015;28;20210;-72
2021/05/21 08:50:27;;;;;;;0.95;0.95;;;14.50;82.60;;;;;;5057966;28;20179;-72
2021/05/21 08:52:53;;;;;;;1.05;1.05;;;14.50;82.50;;;;;;5055864;28;20178;-70
2021/05/21 08:55:19;;;;;;;1.58;0.90;;;14.50;82.60;;;;;;5055879;28;20260;-72
2021/05/21 08:57:45;;;;;;;1.67;1.10;;;14.50;82.40;;;;;;5057170;28;20202;-71
2021/05/21 09:00:12;;;;;;;3.83;1.00;;;14.50;82.10;;;;;;5056279;28;20187;-73
2021/05/21 09:02:39;;;;;;;1.08;1.08;;;14.50;82.20;;;;;;5056827;28;20225;-72
2021/05/21 09:05:08;;;;;;;1.20;1.20;;;14.40;82.60;;;;;;5056379;28;20203;-72
2021/05/21 09:07:39;;;;;;;1.17;1.17;;;14.30;82.40;;;;;;5056591;28;20264;-72
2021/05/21 09:10:13;;;;;;;0.98;0.98;;;14.30;82.60;;;;;;5056365;28;20183;-72
2021/05/21 09:12:49;;;;;;;1.30;1.30;;;14.30;83.10;;;;;;5057873;28;20190;-72
2021/05/21 09:15:22;;;;;;;1.10;1.10;;;14.20;83.10;;;;;;5056569;28;20218;-71
2021/05/21 09:18:00;;;;;;;3.42;1.50;;;14.20;83.10;;;;;;5056245;28;20190;-70
2021/05/21 09:20:27;;;;;;;1.70;1.60;;;14.30;83.30;;;;;;5054984;28;20257;-71
2021/05/21 09:23:01;;;;;;;1.30;1.25;;;14.30;83.40;;;;;;5057615;28;20269;-69
2021/05/21 09:25:39;;;;;;;1.40;1.40;;;14.30;83.30;;;;;;5055502;28;20195;-71
2021/05/21 09:28:07;;;;;;;1.15;1.15;;;14.30;83.20;;;;;;5056016;28;20186;-71
2021/05/21 09:30:32;;;;;;;1.55;1.55;;;14.40;83.40;;;;;;5054524;28;20521;-72
2021/05/21 09:33:05;;;;;;;1.42;1.42;;;14.40;82.90;;;;;;5057318;28;20188;-71
2021/05/21 09:35:32;;;;;;;1.20;1.20;;;14.50;82.50;;;;;;5056012;28;20202;-71
2021/05/21 09:38:00;;;;;;;2.08;1.13;;;14.50;82.10;;;;;;5055076;28;21046;-73
2021/05/21 09:40:29;;;;;;;1.35;1.35;;;14.60;81.90;;;;;;5056594;28;20203;-71
2021/05/21 09:43:00;;;;;;;1.50;1.50;;;14.60;81.60;;;;;;5055142;28;20188;-72
2021/05/21 09:45:33;;;;;;;1.40;1.40;;;14.50;81.90;;;;;;5058211;28;20190;-68
2021/05/21 09:48:08;;;;;;;1.20;1.20;;;14.40;81.90;;;;;;5051809;28;20729;-70
2021/05/21 09:50:50;;;;;;;1.20;1.20;;;14.30;82.00;;;;;;5054992;28;20673;-69
2021/05/21 09:53:20;;;;;;;1.17;1.17;;;14.30;82.70;;;;;;5054125;28;20256;-71
2021/05/21 09:56:19;;;;;;;1.30;1.30;;;14.30;82.60;;;;;;5053198;28;20215;-71
2021/05/21 09:58:45;;;;;;;2.25;1.30;;;14.20;82.90;;;;;;5057411;28;20191;-72
2021/05/21 10:01:19;;;;;;;1.42;1.42;;;14.10;83.20;;;;;;5055259;28;20209;-72
2021/05/21 10:03:47;;;;;;;1.13;1.13;;;14.10;83.00;;;;;;5054087;28;20186;-73
2021/05/21 10:06:14;;;;;;;1.13;1.13;;;14.00;83.80;;;;;;5052283;28;20217;-71
2021/05/21 10:08:40;;;;;;;1.20;1.20;;;14.00;84.00;;;;;;5044939;28;20254;-71
2021/05/21 10:11:09;;;;;;;1.50;1.50;;;14.00;84.50;;;;;;5045220;28;20180;-72
2021/05/21 10:13:47;;;;;;;1.88;1.77;;;14.00;84.50;;;;;;5050919;28;20187;-70
2021/05/21 10:16:18;;;;;;;1.60;1.60;;;13.90;84.70;;;;;;5047127;28;20303;-70
2021/05/21 10:18:52;;;;;;;1.20;1.20;;;14.00;84.50;;;;;;5054381;28;20241;-72
2021/05/21 10:21:19;;;;;;;2.05;1.55;;;14.10;84.50;;;;;;5045945;28;20569;-70
2021/05/21 10:24:09;;;;;;;1.83;1.38;;;14.40;84.30;;;;;;5046748;28;20187;-70
2021/05/21 10:26:39;;;;;;;3.42;1.52;;;14.50;84.30;;;;;;5047281;28;20176;-72
2021/05/21 10:29:13;;;;;;;3.55;1.27;;;14.70;83.10;;;;;;5046937;28;20183;-71
2021/05/21 10:31:39;;;;;;;1.73;1.67;;;14.80;82.60;;;;;;5039193;28;20178;-73
2021/05/21 10:34:14;;;;;;;1.00;1.00;;;15.10;82.40;;;;;;5047188;28;20616;-72
2021/05/21 10:36:40;;;;;;;0.95;0.95;;;15.20;81.10;;;;;;5046994;28;20243;-72
2021/05/21 10:39:10;;;;;;;1.55;1.48;;;15.40;81.00;;;;;;5046753;28;20179;-73
2021/05/21 10:41:56;;;;;;;1.23;1.23;;;15.60;80.30;;;;;;5047034;28;20207;-71
2021/05/21 10:44:26;;;;;;;1.23;1.17;;;15.90;80.10;;;;;;5039149;28;20187;-74
2021/05/21 10:47:17;;;;;;;1.50;1.50;;;16.10;78.60;;;;;;5045924;28;20179;-71
2021/05/21 10:50:03;;;;;;;1.77;1.67;;;16.20;77.40;;;;;;5046743;28;20210;-72
2021/05/21 10:52:48;;;;;;;1.33;1.33;;;16.20;77.20;;;;;;5039534;28;20256;-72
2021/05/21 10:55:15;;;;;;;1.67;1.60;;;16.20;77.00;;;;;;5051378;28;20199;-73
2021/05/21 10:57:56;;;;;;;1.33;1.33;;;16.10;77.30;;;;;;5042523;28;20184;-72
2021/05/21 11:00:22;;;;;;;1.30;1.30;;;16.10;77.60;;;;;;5049158;28;20199;-70
2021/05/21 11:02:49;;;;;;;0.90;0.90;;;16.00;77.50;;;;;;5048995;28;20204;-69
2021/05/21 11:05:34;;;;;;;1.48;1.05;;;15.90;77.20;;;;;;5049288;28;20186;-69
2021/05/21 11:08:06;;;;;;;1.17;1.17;;;15.70;77.70;;;;;;5049472;28;20261;-70
2021/05/21 11:10:32;;;;;;;1.20;1.20;;;15.50;77.80;;;;;;5047720;28;20184;-68
2021/05/21 11:13:15;;;;;;;1.10;1.10;;;15.50;78.00;;;;;;5054651;28;20237;-71
2021/05/21 11:15:42;;;;;;;1.00;1.00;;;15.40;78.10;;;;;;5048548;28;20206;-70
2021/05/21 11:18:20;;;;;;;1.08;1.08;;;15.30;78.50;;;;;;5050608;28;20257;-68
2021/05/21 11:21:09;;;;;;;1.50;1.50;;;15.30;78.70;;;;;;5050502;28;20695;-70
2021/05/21 11:23:45;;;;;;;1.38;1.33;;;15.20;78.80;;;;;;5054910;28;20199;-70
2021/05/21 11:26:14;;;;;;;1.30;1.20;;;15.20;78.90;;;;;;5039733;28;20691;-70
2021/05/21 11:28:50;;;;;;;1.38;1.38;;;15.30;79.20;;;;;;5048189;28;20180;-72
2021/05/21 11:31:25;;;;;;;3.08;1.48;;;15.30;79.60;;;;;;5049518;28;20187;-76
2021/05/21 11:33:59;;;;;;;1.10;1.10;;;15.40;79.20;;;;;;5050674;28;20191;-71
2021/05/21 11:36:27;;;;;;;1.30;1.30;;;15.40;79.40;;;;;;5056830;28;20214;-72
2021/05/21 11:38:53;;;;;;;2.45;1.35;;;15.60;79.10;;;;;;5049078;28;20180;-71
2021/05/21 11:41:28;;;;;;;1.35;1.35;;;16.10;78.80;;;;;;5048504;28;20664;-71
2021/05/21 11:43:54;;;;;;;1.42;1.33;;;17.00;77.00;;;;;;5048920;28;20266;-72
2021/05/21 11:46:21;;;;;;;1.25;1.25;;;17.50;75.10;;;;;;5049732;28;20728;-73
2021/05/21 11:48:48;;;;;;;1.35;1.33;;;17.70;74.30;;;;;;5046157;28;20215;-72
2021/05/21 11:51:22;;;;;;;1.65;1.55;;;17.80;73.70;;;;;;5049918;28;20184;-72
2021/05/21 11:53:53;;;;;;;1.50;1.50;;;17.70;73.60;;;;;;5049798;28;20167;-72
2021/05/21 11:56:29;;;;;;;1.20;1.08;;;17.50;74.10;;;;;;5050082;28;20246;-72
2021/05/21 11:59:22;;;;;;;1.52;1.50;;;17.30;74.10;;;;;;5046941;28;20172;-72
2021/05/21 12:01:51;;;;;;;8.50;1.55;;;17.00;74.70;;;;;;5046172;28;20271;-72
2021/05/21 12:04:18;;;;;;;1.40;1.30;;;16.80;75.10;;;;;;5048881;28;20179;-71
2021/05/21 12:06:47;;;;;;;1.20;1.20;;;16.70;75.50;;;;;;5047532;28;20198;-72
2021/05/21 12:09:14;;;;;;;1.35;1.35;;;16.70;75.10;;;;;;5048331;28;20182;-71
2021/05/21 12:11:41;;;;;;;1.98;1.10;;;16.70;75.60;;;;;;5048521;28;20286;-71
2021/05/21 12:14:09;;;;;;;0.90;0.90;;;17.00;75.60;;;;;;5049265;28;20688;-73
2021/05/21 12:16:36;;;;;;;0.80;0.80;;;17.70;75.10;;;;;;5049309;28;20299;-72
2021/05/21 12:19:04;;;;;;;1.00;1.00;;;18.40;72.70;;;;;;5049518;28;20180;-72
2021/05/21 12:21:32;;;;;;;1.10;1.10;;;19.00;71.90;;;;;;5039348;28;20180;-72
2021/05/21 12:23:59;;;;;;;1.35;1.35;;;19.40;70.20;;;;;;5049351;28;20175;-72
2021/05/21 12:26:28;;;;;;;1.10;1.10;;;19.50;69.70;;;;;;5038527;28;20183;-70
2021/05/21 12:28:55;;;;;;;1.08;1.08;;;19.40;69.20;;;;;;5049269;28;21016;-71
2021/05/21 12:31:27;;;;;;;1.20;1.20;;;19.50;69.10;;;;;;5049318;28;20253;-71
2021/05/21 12:33:53;;;;;;;0.90;0.90;;;19.40;69.50;;;;;;5049209;28;20712;-72
2021/05/21 12:36:23;;;;;;;0.63;0.63;;;19.30;69.30;;;;;;5049300;28;20207;-71
2021/05/21 12:38:52;;;;;;;1.23;1.13;;;19.10;69.30;;;;;;5047147;28;20180;-71
2021/05/21 12:41:26;;;;;;;0.90;0.90;;;19.00;69.90;;;;;;5040990;28;20174;-73
2021/05/21 12:43:52;;;;;;;0.80;0.80;;;18.80;69.70;;;;;;5049084;28;20687;-73
2021/05/21 12:46:17;;;;;;;0.80;0.80;;;18.70;70.60;;;;;;5049207;28;20263;-73
2021/05/21 12:48:45;;;;;;;0.70;0.70;;;18.90;69.50;;;;;;5048879;28;20256;-73
2021/05/21 12:51:28;;;;;;;0.88;0.85;;;19.10;69.50;;;;;;5049023;28;20174;-73
2021/05/21 12:54:20;;;;;;;1.00;1.00;;;19.10;69.30;;;;;;5048910;28;20180;-73